Flight Track Log - Related Links

Times and Time Zones

All times are in EDT time to prevent confusion due to time zone crossing. See the SWA718 flight status page for this flight to view local times or setup timezone preferences in your user account.

Time Position Orientation Groundspeed Altitude Reporting Facility
EDT Latitude Longitude Course Direction KTS MPH feet Rate Location/Type
Wed 07:36:12 PM 28.4000 -81.3000 221° Southwest 161 185 800  Level Orlando TRACON
Wed 07:36:36 PM 28.3833 -81.3167 221° Southwest 205 236 1,400 2,571 Climbing Orlando TRACON
Wed 07:37:36 PM 28.3333 -81.3500 210° Southwest 224 258 4,400 3,000 Climbing Orlando TRACON
Wed 07:38:36 PM 28.3167 -81.4167 254° West 229 264 7,400 2,588 Climbing Orlando TRACON
Wed 07:40:16 PM 28.3142 -81.5511 269° West 253 291 11,300 2,325 Climbing Jacksonville Center
Wed 07:41:16 PM 28.3108 -81.6358 267° West 264 304 13,600 2,200 Climbing Jacksonville Center
Wed 07:42:16 PM 28.3117 -81.7325 271° West 282 325 15,700 2,050 Climbing Jacksonville Center
Wed 07:43:16 PM 28.3125 -81.8317 271° West 303 349 17,700 1,613 Climbing Jacksonville Center
Wed 07:44:15 PM 28.3133 -81.9306 271° West 334 384 18,900 1,160 Climbing Jacksonville Center
Wed 07:45:15 PM 28.3183 -82.0436 273° West 355 409 20,000 1,240 Climbing Jacksonville Center
Wed 07:46:16 PM 28.3378 -82.1614 281° West 376 433 21,400 1,587 Climbing Jacksonville Center
Wed 07:47:16 PM 28.4236 -82.2339 323° Northwest 356 410 23,200 1,550 Climbing Jacksonville Center
Wed 07:48:16 PM 28.5303 -82.2925 334° Northwest 377 434 24,500 1,350 Climbing Jacksonville Center
Wed 07:49:16 PM 28.6372 -82.3486 335° Northwest 398 458 25,900 1,700 Climbing Jacksonville Center
Wed 07:50:16 PM 28.7417 -82.4072 334° Northwest 410 472 27,900 1,550 Climbing Jacksonville Center
Wed 07:51:16 PM 28.8461 -82.4611 336° Northwest 410 472 29,000 1,050 Climbing Jacksonville Center
Wed 07:52:16 PM 28.9528 -82.5178 335° Northwest 410 472 30,000 1,550 Climbing Jacksonville Center
Wed 07:53:16 PM 29.0533 -82.5767 333° Northwest 410 472 32,100 1,450 Climbing Jacksonville Center
Wed 07:54:16 PM 29.1556 -82.6311 335° Northwest 405 466 32,900 950 Climbing Jacksonville Center
Wed 07:55:16 PM 29.2558 -82.6856 335° Northwest 405 466 34,000 1,200 Climbing Jacksonville Center
Wed 07:56:16 PM 29.3561 -82.7400 335° Northwest 400 460 35,300 1,000 Climbing Jacksonville Center
Wed 07:57:16 PM 29.4522 -82.7925 335° Northwest 395 455 36,000 350 Climbing Jacksonville Center
Wed 07:58:16 PM 29.5631 -82.8567 333° Northwest 390 449 36,000  Level Jacksonville Center
Wed 07:59:16 PM 29.6611 -82.9117 334° Northwest 383 441 36,000  Level Jacksonville Center
Wed 08:00:16 PM 29.7611 -82.9644 335° Northwest 390 449 36,000  Level Jacksonville Center
Wed 08:01:16 PM 29.8572 -83.0194 334° Northwest 390 449 36,000  Level Jacksonville Center
Wed 08:02:16 PM 29.9594 -83.0747 335° Northwest 390 449 36,000  Level Jacksonville Center
Wed 08:03:16 PM 30.0597 -83.1278 335° Northwest 390 449 36,000  Level Jacksonville Center
Wed 08:04:16 PM 30.1556 -83.1833 333° Northwest 390 449 36,000  Level Jacksonville Center
Wed 08:05:16 PM 30.2556 -83.2389 334° Northwest 390 449 36,000  Level Jacksonville Center
Wed 08:06:16 PM 30.3556 -83.2947 334° Northwest 390 449 36,000  Level Jacksonville Center
Wed 08:07:16 PM 30.4558 -83.3506 334° Northwest 390 449 36,000  Level Jacksonville Center
Wed 08:08:16 PM 30.5558 -83.4064 334° Northwest 390 449 36,000  Level Jacksonville Center
Wed 08:09:16 PM 30.6578 -83.4650 334° Northwest 395 455 36,000  Level Jacksonville Center
Wed 08:10:16 PM 30.7578 -83.5236 333° Northwest 400 460 36,000  Level Jacksonville Center
Wed 08:11:16 PM 30.8575 -83.5800 334° Northwest 400 460 36,000  Level Jacksonville Center
Wed 08:12:16 PM 30.9575 -83.6339 335° Northwest 400 460 36,000  Level Jacksonville Center
Wed 08:13:16 PM 31.0553 -83.6906 334° Northwest 400 460 36,000  Level Jacksonville Center
Wed 08:14:16 PM 31.1553 -83.7494 333° Northwest 394 453 36,000  Level Jacksonville Center
Wed 08:15:16 PM 31.2550 -83.8064 334° Northwest 394 453 36,000  Level Jacksonville Center
Wed 08:17:29 PM 31.4689 -83.9317 333° Northwest 382 440 36,000  Level Atlanta Center
Wed 08:18:29 PM 31.5714 -83.9731 341° North 382 440 36,000  Level Atlanta Center
Wed 08:19:29 PM 31.6819 -83.9997 348° North 392 451 36,000  Level Atlanta Center
Wed 08:20:29 PM 31.7947 -84.0217 351° North 397 457 36,000  Level Atlanta Center
Wed 08:21:29 PM 31.9031 -84.0436 350° North 397 457 36,000  Level Atlanta Center
Wed 08:22:29 PM 32.0158 -84.0706 349° North 397 457 36,000  Level Atlanta Center
Wed 08:23:29 PM 32.1056 -84.0878 351° North 397 457 36,000  Level Atlanta Center
Wed 08:24:29 PM 32.2267 -84.1150 349° North 397 457 36,000  Level Atlanta Center
Wed 08:25:29 PM 32.3394 -84.1422 348° North 402 463 36,000  Level Atlanta Center
Wed 08:26:29 PM 32.4519 -84.1669 349° North 412 474 36,000  Level Atlanta Center
Wed 08:27:29 PM 32.5667 -84.1942 349° North 412 474 36,000  Level Atlanta Center
Wed 08:28:29 PM 32.6817 -84.2189 350° North 412 474 36,000  Level Atlanta Center
Wed 08:29:29 PM 32.8067 -84.2489 349° North 412 474 36,000  Level Atlanta Center
Wed 08:30:29 PM 32.9236 -84.2739 350° North 412 474 36,000  Level Atlanta Center
Wed 08:31:29 PM 33.0383 -84.3039 348° North 412 474 36,000  Level Atlanta Center
Wed 08:32:29 PM 33.1447 -84.3267 350° North 417 480 36,000  Level Atlanta Center
Wed 08:33:29 PM 33.2575 -84.3517 349° North 417 480 36,000  Level Atlanta Center
Wed 08:34:29 PM 33.3742 -84.3772 350° North 423 487 36,000  Level Atlanta Center
Wed 08:35:29 PM 33.4911 -84.4050 349° North 424 488 36,000  Level Atlanta Center
Wed 08:36:29 PM 33.6183 -84.4356 349° North 424 488 36,000  Level Atlanta Center
Wed 08:37:29 PM 33.7331 -84.4633 349° North 424 488 36,000  Level Atlanta Center
Wed 08:38:29 PM 33.8478 -84.4914 349° North 424 488 36,000  Level Atlanta Center
Wed 08:39:29 PM 33.9667 -84.5197 349° North 429 494 36,000  Level Atlanta Center
Wed 08:40:29 PM 34.0875 -84.5506 348° North 435 501 36,000  Level Atlanta Center
Wed 08:41:29 PM 34.2000 -84.5739 350° North 440 506 36,000  Level Atlanta Center
Wed 08:42:29 PM 34.3169 -84.6022 349° North 440 506 36,000  Level Atlanta Center
Wed 08:43:29 PM 34.4378 -84.6306 349° North 434 499 36,000  Level Atlanta Center
Wed 08:44:29 PM 34.5608 -84.6492 353° North 429 494 36,000  Level Atlanta Center
Wed 08:45:29 PM 34.6881 -84.6703 352° North 435 501 36,000  Level Atlanta Center
Wed 08:46:29 PM 34.8089 -84.6889 353° North 430 495 36,000  Level Atlanta Center
Wed 08:47:29 PM 34.9300 -84.7075 353° North 430 495 36,000  Level Atlanta Center
Wed 08:48:29 PM 35.0508 -84.7239 354° North 430 495 36,000  Level Atlanta Center
Wed 08:49:29 PM 35.1717 -84.7425 353° North 430 495 36,000  Level Atlanta Center
Wed 08:50:29 PM 35.2925 -84.7639 352° North 430 495 36,000  Level Atlanta Center
Wed 08:51:29 PM 35.4092 -84.7981 347° North 430 495 36,000  Level Atlanta Center
Wed 08:52:29 PM 35.5258 -84.8297 348° North 430 495 36,000  Level Atlanta Center
Wed 08:53:29 PM 35.6383 -84.8617 347° North 430 495 36,000  Level Atlanta Center
Wed 08:54:29 PM 35.7550 -84.8933 348° North 420 483 36,000  Level Atlanta Center
Wed 08:56:04 PM 35.9219 -84.9406 347° North 422 486 36,000  Level Indianapolis Center
Wed 08:57:06 PM 36.0411 -84.9747 347° North 414 476 36,000  Level Indianapolis Center
Wed 08:58:07 PM 36.1522 -85.0064 347° North 409 471 36,000  Level Indianapolis Center
Wed 08:59:08 PM 36.2647 -85.0386 347° North 414 476 36,000  Level Indianapolis Center
Wed 09:00:10 PM 36.3767 -85.0700 347° North 413 475 36,000  Level Indianapolis Center
Wed 09:01:11 PM 36.5117 -85.1092 347° North 414 476 36,000  Level Indianapolis Center
Wed 09:02:12 PM 36.6244 -85.1411 347° North 416 479 36,000  Level Indianapolis Center
Wed 09:03:14 PM 36.7367 -85.1736 347° North 414 476 36,000  Level Indianapolis Center
Wed 09:04:15 PM 36.8492 -85.2061 347° North 413 475 36,000  Level Indianapolis Center
Wed 09:05:16 PM 36.9611 -85.2386 347° North 413 475 36,000  Level Indianapolis Center
Wed 09:06:18 PM 37.0772 -85.2728 347° North 412 474 36,000  Level Indianapolis Center
Wed 09:07:19 PM 37.1872 -85.3061 346° North 407 468 36,000  Level Indianapolis Center
Wed 09:08:20 PM 37.2992 -85.3381 347° North 410 472 36,000  Level Indianapolis Center
Wed 09:09:21 PM 37.4100 -85.3722 346° North 406 467 36,000  Level Indianapolis Center
Wed 09:10:23 PM 37.5219 -85.4036 347° North 409 471 36,000  Level Indianapolis Center
Wed 09:11:24 PM 37.6319 -85.4378 346° North 404 465 36,000  Level Indianapolis Center
Wed 09:12:25 PM 37.7433 -85.4711 347° North 409 471 36,000  Level Indianapolis Center
Wed 09:13:27 PM 37.8589 -85.5044 347° North 415 478 36,000  Level Indianapolis Center
Wed 09:14:28 PM 37.9706 -85.5369 347° North 412 474 36,000 -443 Level Indianapolis Center
Wed 09:15:29 PM 38.0806 -85.5706 346° North 407 468 35,100 -492 Descending Indianapolis Center
Wed 09:16:30 PM 38.1942 -85.5953 350° North 411 473 35,000 -49 Descending Indianapolis Center
Wed 09:17:31 PM 38.3322 -85.6214 352° North 415 478 35,000  Level Indianapolis Center
Wed 09:18:33 PM 38.4478 -85.6439 351° North 419 482 35,000  Level Indianapolis Center
Wed 09:19:34 PM 38.5633 -85.6667 351° North 419 482 35,000 -393 Level Indianapolis Center
Wed 09:20:35 PM 38.6694 -85.6861 352° North 417 480 34,200 -934 Descending Indianapolis Center
Wed 09:21:36 PM 38.7850 -85.7078 352° North 417 480 33,100 -976 Descending Indianapolis Center
Wed 09:22:38 PM 38.8964 -85.7308 351° North 406 467 32,200 -927 Descending Indianapolis Center
Wed 09:23:39 PM 39.0319 -85.7583 351° North 418 481 31,200 -934 Descending Indianapolis Center
Wed 09:24:40 PM 39.1533 -85.7811 352° North 434 499 30,300 -885 Descending Indianapolis Center
Wed 09:25:41 PM 39.2758 -85.8058 351° North 440 506 29,400 -976 Descending Indianapolis Center
Wed 09:26:43 PM 39.3942 -85.8289 351° North 433 498 28,300 -683 Descending Indianapolis Center
Wed 09:27:44 PM 39.5081 -85.8525 351° North 417 480 28,000 -98 Descending Indianapolis Center
Wed 09:29:00 PM 39.6452 -85.8766 352° North  Level FlightAware Approximate
Wed 09:29:47 PM 39.7381 -85.8975 352° North 421 484 28,000  Level Indianapolis Center
Wed 09:30:48 PM 39.8533 -85.9208 351° North 421 484 27,700 -1,426 Descending Indianapolis Center
Wed 09:31:49 PM 39.9797 -85.9464 351° North 397 457 25,100 -1,820 Descending Indianapolis Center
Wed 09:32:50 PM 40.0808 -85.9800 346° North 373 429 24,000 -600 Descending Indianapolis Center
Wed 09:33:39 PM 40.1642 -86.0172 341° North 378 435 24,000  Level Chicago Center
Wed 09:34:41 PM 40.2672 -86.0656 340° North 391 450 24,000 -581 Level Chicago Center
Wed 09:35:43 PM 40.3700 -86.1117 341° North 389 448 22,800 -1,113 Descending Chicago Center
Wed 09:36:45 PM 40.4631 -86.1586 339° North 364 419 21,700 -1,024 Descending Chicago Center
Wed 09:37:46 PM 40.5539 -86.1983 342° North 347 399 20,700 -927 Descending Chicago Center
Wed 09:38:48 PM 40.6464 -86.2425 340° North 350 403 19,800 -1,161 Descending Chicago Center
Wed 09:39:50 PM 40.7464 -86.2906 340° North 351 404 18,300 -1,707 Descending Chicago Center
Wed 09:40:51 PM 40.8372 -86.3319 341° North 346 398 16,300 -2,049 Descending Chicago Center
Wed 09:41:53 PM 40.9231 -86.3731 340° North 331 381 14,100 -2,081 Descending Chicago Center
Wed 09:42:55 PM 41.0061 -86.4133 340° North 319 367 12,000 -1,463 Descending Chicago Center
Wed 09:43:56 PM 41.0683 -86.4803 321° Northwest 301 346 11,100 -829 Descending Chicago Center
Wed 09:44:58 PM 41.1231 -86.5667 310° West 312 359 10,300 -532 Descending Chicago Center
Wed 09:46:00 PM 41.1806 -86.6528 312° West 312 359 10,000 -146 Descending Chicago Center
Wed 09:47:01 PM 41.2392 -86.7406 312° West 304 350 10,000  Level Chicago Center
Wed 09:48:03 PM 41.3036 -86.8392 311° West 300 345 10,000  Level Chicago Center
Wed 09:49:04 PM 41.3597 -86.9231 312° West 305 351 10,000 -293 Level Chicago Center
Wed 09:50:06 PM 41.4117 -87.0003 312° West 284 327 9,400 -1,016 Descending Chicago Center
Wed 09:51:08 PM 41.4564 -87.0697 311° West 255 293 7,900 -1,358 Descending Chicago Center
Wed 09:51:52 PM 41.4833 -87.1333 300° West 248 285 7,000 -1,096 Descending Chicago TRACON
Wed 09:52:52 PM 41.5167 -87.2167 298° West 254 292 6,000 -942 Descending Chicago TRACON
Wed 09:53:53 PM 41.5500 -87.3000 298° West 252 290 5,100 -843 Descending Chicago TRACON
Wed 09:54:53 PM 41.5833 -87.3833 298° West 245 282 4,300 -889 Descending Chicago TRACON
Wed 09:55:14 PM 41.5947 -87.4094 300° West 249 287 3,900 -878 Descending Chicago Center
Wed 09:56:15 PM 41.6261 -87.4869 298° West 245 282 3,100 -492 Descending Chicago Center
Wed 09:57:16 PM 41.6556 -87.5608 298° West 238 274 2,900 -293 Descending Chicago Center
Wed 09:58:18 PM 41.6881 -87.6164 308° West 212 244 2,500 -247 Descending Chicago Center
Wed 09:58:53 PM 41.7167 -87.6500 319° Northwest 175 201 2,500 -379 Level Chicago TRACON
Wed 09:59:53 PM 41.7333 -87.6833 304° West 145 167 1,900 -450 Descending Chicago TRACON
Wed 10:00:53 PM 41.7833 -87.6833 360° North 165 190 1,600 -250 Descending Chicago TRACON
Wed 10:01:53 PM 41.8167 -87.7000 340° North 134 154 1,400 -200 Descending Chicago TRACON
Wed 10:04:00 PM 41.7833 -87.7500 340° North  Level FlightAware Approximate

Login

Don't have an account? Register now (free) for customized features, flight alerts, and more!